createdAt,value
2023-05-23T00:01:49.750Z,15.45
2023-05-23T00:04:19.039Z,15.41
2023-05-23T00:06:50.806Z,15.38
2023-05-23T00:09:21.950Z,15.35
2023-05-23T00:11:50.683Z,15.33
2023-05-23T00:14:19.509Z,15.31
2023-05-23T00:16:49.704Z,15.32
2023-05-23T00:19:18.813Z,15.33
2023-05-23T00:21:49.583Z,15.33
2023-05-23T00:24:19.019Z,15.34
2023-05-23T00:26:48.900Z,15.34
2023-05-23T00:29:17.825Z,15.37
2023-05-23T00:31:47.545Z,15.39
2023-05-23T00:34:18.132Z,15.38
2023-05-23T00:36:48.159Z,15.42
2023-05-23T00:39:20.810Z,15.45
2023-05-23T00:41:53.151Z,15.48
2023-05-23T00:44:22.832Z,15.51
2023-05-23T00:46:54.989Z,15.50
2023-05-23T00:49:24.087Z,15.49
2023-05-23T00:51:54.295Z,15.50
2023-05-23T00:54:28.685Z,15.49
2023-05-23T00:56:58.736Z,15.48
2023-05-23T00:59:27.728Z,15.47
2023-05-23T01:01:58.131Z,15.46
2023-05-23T01:04:28.641Z,15.47
2023-05-23T01:06:57.788Z,15.45
2023-05-23T01:09:28.669Z,15.45
2023-05-23T01:12:08.947Z,15.45
2023-05-23T01:14:44.228Z,15.43
2023-05-23T01:17:18.509Z,15.42
2023-05-23T01:20:13.107Z,15.41
2023-05-23T01:23:01.497Z,15.43
2023-05-23T01:25:44.296Z,15.44
2023-05-23T01:28:18.649Z,15.45
2023-05-23T01:30:48.433Z,15.47
2023-05-23T01:33:19.522Z,15.46
2023-05-23T01:35:49.856Z,15.47
2023-05-23T01:38:18.122Z,15.49
2023-05-23T01:40:46.430Z,15.53
2023-05-23T01:43:16.786Z,15.55
2023-05-23T01:45:45.309Z,15.57
2023-05-23T01:48:16.441Z,15.60
2023-05-23T01:50:46.995Z,15.62
2023-05-23T01:53:19.375Z,15.60
2023-05-23T01:55:48.413Z,15.61
2023-05-23T01:58:18.607Z,15.61
2023-05-23T02:00:47.845Z,15.60
2023-05-23T02:03:16.403Z,15.59
2023-05-23T02:05:45.328Z,15.57
2023-05-23T02:08:13.546Z,15.58
2023-05-23T02:10:42.159Z,15.56
2023-05-23T02:13:10.692Z,15.56
2023-05-23T02:15:40.673Z,15.57
2023-05-23T02:18:09.533Z,15.58
2023-05-23T02:20:38.157Z,15.57
2023-05-23T02:23:06.681Z,15.56
2023-05-23T02:25:35.145Z,15.55
2023-05-23T02:28:03.377Z,15.53
2023-05-23T02:30:31.885Z,15.54
2023-05-23T02:33:06.716Z,15.53
2023-05-23T02:35:35.720Z,15.54
2023-05-23T02:38:03.946Z,15.53
2023-05-23T02:40:32.638Z,15.52
2023-05-23T02:43:01.108Z,15.53
2023-05-23T02:45:29.629Z,15.53
2023-05-23T02:47:58.364Z,15.54
2023-05-23T02:50:28.599Z,15.53
2023-05-23T02:52:56.712Z,15.55
2023-05-23T02:55:25.879Z,15.55
2023-05-23T02:57:54.507Z,15.56
2023-05-23T03:00:23.298Z,15.56
2023-05-23T03:02:52.045Z,15.59
2023-05-23T03:05:20.706Z,15.63
2023-05-23T03:07:52.133Z,15.68
2023-05-23T03:10:20.923Z,15.76
2023-05-23T03:12:49.081Z,15.79
2023-05-23T03:15:17.871Z,15.85
2023-05-23T03:17:46.116Z,15.88
2023-05-23T03:20:15.146Z,15.91
2023-05-23T03:22:45.868Z,15.95
2023-05-23T03:25:17.734Z,15.99
2023-05-23T03:27:45.854Z,16.02
2023-05-23T03:30:14.910Z,16.09
2023-05-23T03:32:43.239Z,16.15
2023-05-23T03:35:13.031Z,16.21
2023-05-23T03:37:41.584Z,16.26
2023-05-23T03:40:11.215Z,16.29
2023-05-23T03:42:41.769Z,16.35
2023-05-23T03:45:10.166Z,16.40
2023-05-23T03:47:38.419Z,16.46
2023-05-23T03:50:07.527Z,16.51
2023-05-23T03:52:35.779Z,16.59
2023-05-23T03:55:04.133Z,16.83
2023-05-23T03:57:32.519Z,17.10
2023-05-23T04:00:02.628Z,17.38
2023-05-23T04:02:31.553Z,17.64
2023-05-23T04:05:00.760Z,17.84
2023-05-23T04:07:29.509Z,18.00
2023-05-23T04:09:57.726Z,18.23
2023-05-23T04:12:26.041Z,18.42
2023-05-23T04:14:54.824Z,18.59
2023-05-23T04:17:24.582Z,18.71
2023-05-23T04:19:53.835Z,18.83
2023-05-23T04:22:22.173Z,18.90
2023-05-23T04:24:50.411Z,18.94
2023-05-23T04:27:18.607Z,18.95
2023-05-23T04:29:46.923Z,18.89
2023-05-23T04:32:16.904Z,18.82
2023-05-23T04:34:46.827Z,18.79
2023-05-23T04:37:17.530Z,18.77
2023-05-23T04:39:46.501Z,18.75
2023-05-23T04:42:15.203Z,18.80
2023-05-23T04:44:44.316Z,18.83
2023-05-23T04:47:12.600Z,18.87
2023-05-23T04:49:40.883Z,18.88
2023-05-23T04:52:10.970Z,18.88
2023-05-23T04:54:45.178Z,18.84
2023-05-23T04:57:13.966Z,18.85
2023-05-23T04:59:42.755Z,18.90
2023-05-23T05:02:11.156Z,18.97
2023-05-23T05:04:39.831Z,18.93
2023-05-23T05:07:08.679Z,18.93
2023-05-23T05:09:39.015Z,18.93
2023-05-23T05:12:07.916Z,18.91
2023-05-23T05:14:36.201Z,18.92
2023-05-23T05:17:04.741Z,18.93
2023-05-23T05:19:33.214Z,18.92
2023-05-23T05:22:01.555Z,18.94
2023-05-23T05:24:29.913Z,19.00
2023-05-23T05:26:59.583Z,19.05
2023-05-23T05:29:28.960Z,19.03
2023-05-23T05:31:57.912Z,19.04
2023-05-23T05:34:26.969Z,19.13
2023-05-23T05:36:56.806Z,19.19
2023-05-23T05:39:26.887Z,19.25
2023-05-23T05:41:55.038Z,19.29
2023-05-23T05:44:24.697Z,19.36
2023-05-23T05:46:53.300Z,19.42
2023-05-23T05:49:21.697Z,19.46
2023-05-23T05:51:50.642Z,19.58
2023-05-23T05:54:19.481Z,19.71
2023-05-23T05:56:48.647Z,19.77
2023-05-23T05:59:17.027Z,19.84
2023-05-23T06:01:47.506Z,19.95
2023-05-23T06:04:16.114Z,20.05
2023-05-23T06:06:44.878Z,20.12
2023-05-23T06:09:13.100Z,20.15
2023-05-23T06:11:41.489Z,20.28
2023-05-23T06:14:09.952Z,20.45
2023-05-23T06:16:38.939Z,20.64
2023-05-23T06:19:09.457Z,20.81
2023-05-23T06:21:37.619Z,20.94
2023-05-23T06:24:06.632Z,21.09
2023-05-23T06:26:35.373Z,21.24
2023-05-23T06:29:03.517Z,21.34
2023-05-23T06:31:31.740Z,21.47
2023-05-23T06:34:00.542Z,21.57
2023-05-23T06:36:31.992Z,21.59
2023-05-23T06:39:00.529Z,21.63
2023-05-23T06:41:28.891Z,21.60
2023-05-23T06:43:57.153Z,21.66
2023-05-23T06:46:25.946Z,21.75
2023-05-23T06:49:02.986Z,21.84
2023-05-23T06:51:43.786Z,21.90
2023-05-23T06:54:12.151Z,21.90
2023-05-23T06:56:40.547Z,21.85
2023-05-23T06:59:08.859Z,21.89
2023-05-23T07:01:37.204Z,21.82
2023-05-23T07:04:05.609Z,21.75
2023-05-23T07:06:35.741Z,21.78
2023-05-23T07:09:05.900Z,21.78
2023-05-23T07:11:35.524Z,21.82
2023-05-23T07:14:04.437Z,21.88
2023-05-23T07:16:32.755Z,21.99
2023-05-23T07:19:02.638Z,22.11
2023-05-23T07:21:31.092Z,22.14
2023-05-23T07:24:00.175Z,22.19
2023-05-23T07:26:29.846Z,22.25
2023-05-23T07:28:59.163Z,22.31
2023-05-23T07:31:27.503Z,22.42
2023-05-23T07:33:56.984Z,22.49
2023-05-23T07:36:26.204Z,22.61
2023-05-23T07:38:54.512Z,22.72
2023-05-23T07:41:22.895Z,22.78
2023-05-23T07:43:52.583Z,22.74
2023-05-23T07:46:22.995Z,22.69
2023-05-23T07:48:51.332Z,22.65
2023-05-23T07:51:21.480Z,22.61
2023-05-23T07:53:50.703Z,22.54
2023-05-23T07:56:18.923Z,22.47
2023-05-23T07:58:47.118Z,22.40
2023-05-23T08:01:16.920Z,22.33
2023-05-23T08:03:45.244Z,22.23
2023-05-23T08:06:14.344Z,22.20
2023-05-23T08:08:43.948Z,22.21
2023-05-23T08:11:12.566Z,22.28
2023-05-23T08:13:41.059Z,22.36
2023-05-23T08:16:09.354Z,22.42
2023-05-23T08:18:39.160Z,22.49
2023-05-23T08:21:07.577Z,22.58
2023-05-23T08:23:35.888Z,22.69
2023-05-23T08:26:04.707Z,22.79
2023-05-23T08:28:34.843Z,22.83
2023-05-23T08:31:03.621Z,22.88
2023-05-23T08:33:32.034Z,22.94
2023-05-23T08:36:03.440Z,23.01
2023-05-23T08:38:32.052Z,23.07
2023-05-23T08:41:03.231Z,23.14
2023-05-23T08:43:31.597Z,23.12
2023-05-23T08:46:00.473Z,23.15
2023-05-23T08:48:29.716Z,23.26
2023-05-23T08:51:00.218Z,23.38
2023-05-23T08:53:32.552Z,23.53
2023-05-23T08:56:02.900Z,23.60
2023-05-23T08:58:34.870Z,23.58
2023-05-23T09:01:03.625Z,23.58
2023-05-23T09:03:33.236Z,23.62
2023-05-23T09:06:01.886Z,23.71
2023-05-23T09:08:32.101Z,23.74
2023-05-23T09:11:02.856Z,23.88
2023-05-23T09:13:31.368Z,24.03
2023-05-23T09:16:06.916Z,24.22
2023-05-23T09:18:36.914Z,24.46
2023-05-23T09:21:05.405Z,24.62
2023-05-23T09:23:36.524Z,24.67
2023-05-23T09:26:05.666Z,24.79
2023-05-23T09:28:35.103Z,24.85
2023-05-23T09:31:04.982Z,24.90
2023-05-23T09:33:44.834Z,24.88
2023-05-23T09:36:13.590Z,24.78
2023-05-23T09:38:45.392Z,24.64
2023-05-23T09:41:14.351Z,24.45
2023-05-23T09:43:51.316Z,24.26
2023-05-23T09:46:23.213Z,24.14
2023-05-23T09:48:53.874Z,24.10
2023-05-23T09:51:24.384Z,24.10
2023-05-23T09:53:54.457Z,24.06
2023-05-23T09:56:24.295Z,24.15
2023-05-23T09:58:53.160Z,24.30
2023-05-23T10:01:22.340Z,24.39
2023-05-23T10:03:51.857Z,24.58
2023-05-23T10:06:27.217Z,24.80
2023-05-23T10:09:02.232Z,24.98
2023-05-23T10:12:09.891Z,25.08
2023-05-23T10:14:45.357Z,25.25
2023-05-23T10:17:18.585Z,25.30
2023-05-23T10:19:55.157Z,25.30
2023-05-23T10:22:23.940Z,25.40
2023-05-23T10:24:54.993Z,25.44
2023-05-23T10:27:23.942Z,25.48
2023-05-23T10:29:53.038Z,25.45
2023-05-23T10:32:22.240Z,25.53
2023-05-23T10:34:57.934Z,25.64
2023-05-23T10:37:32.984Z,25.74
2023-05-23T10:40:08.648Z,25.81
2023-05-23T10:42:47.760Z,25.87
2023-05-23T10:45:16.913Z,25.96
2023-05-23T10:47:45.259Z,25.98
2023-05-23T10:50:17.815Z,25.93
2023-05-23T10:52:46.588Z,26.11
2023-05-23T10:55:17.984Z,26.33
2023-05-23T10:57:47.343Z,26.42
2023-05-23T11:00:17.391Z,26.44
2023-05-23T11:02:55.825Z,26.52
2023-05-23T11:05:28.291Z,26.64
2023-05-23T11:08:10.427Z,26.71
2023-05-23T11:10:57.536Z,26.78
2023-05-23T11:13:26.113Z,26.90
2023-05-23T11:15:54.777Z,26.96
2023-05-23T11:18:25.678Z,27.06
2023-05-23T11:20:55.468Z,27.23
2023-05-23T11:23:24.221Z,27.18
2023-05-23T11:25:54.089Z,26.96
2023-05-23T11:28:24.146Z,26.75
2023-05-23T11:30:52.568Z,26.76
2023-05-23T11:33:21.377Z,26.75
2023-05-23T11:35:52.027Z,26.92
2023-05-23T11:38:20.931Z,27.06
2023-05-23T11:40:50.393Z,27.16
2023-05-23T11:43:19.928Z,27.20
2023-05-23T11:45:50.268Z,27.18
2023-05-23T11:48:18.968Z,27.22
2023-05-23T11:50:50.319Z,27.29
2023-05-23T11:53:21.637Z,27.45
2023-05-23T11:55:53.224Z,27.56
2023-05-23T11:58:22.484Z,27.71
2023-05-23T12:00:55.233Z,27.88
2023-05-23T12:03:24.035Z,28.02
2023-05-23T12:05:52.425Z,28.11
2023-05-23T12:08:20.923Z,28.23
2023-05-23T12:10:54.329Z,28.13
2023-05-23T12:13:26.552Z,27.92
2023-05-23T12:16:04.863Z,27.63
2023-05-23T12:18:35.951Z,27.60
2023-05-23T12:21:06.209Z,27.71
2023-05-23T12:23:35.850Z,27.71
2023-05-23T12:26:10.240Z,27.62
2023-05-23T12:28:40.120Z,27.37
2023-05-23T12:31:14.156Z,27.15
2023-05-23T12:33:44.156Z,27.11
2023-05-23T12:36:14.111Z,27.16
2023-05-23T12:38:45.549Z,27.19
2023-05-23T12:41:19.731Z,27.25
2023-05-23T12:43:53.158Z,27.25
2023-05-23T12:46:23.698Z,27.33
2023-05-23T12:48:52.881Z,27.38
2023-05-23T12:51:22.127Z,27.45
2023-05-23T12:53:50.425Z,27.59
2023-05-23T12:56:18.641Z,27.71
2023-05-23T12:58:46.904Z,27.85
2023-05-23T13:01:16.060Z,27.79
2023-05-23T13:03:46.180Z,27.76
2023-05-23T13:06:14.431Z,27.59
2023-05-23T13:08:43.077Z,27.45
2023-05-23T13:11:11.630Z,27.28
2023-05-23T13:13:40.631Z,27.29
2023-05-23T13:16:09.634Z,27.34
2023-05-23T13:18:38.589Z,27.46
2023-05-23T13:21:08.582Z,27.46
2023-05-23T13:23:39.003Z,27.45
2023-05-23T13:26:08.107Z,27.30
2023-05-23T13:28:36.428Z,27.17
2023-05-23T13:31:05.330Z,27.05
2023-05-23T13:33:33.908Z,26.90
2023-05-23T13:36:02.530Z,26.82
2023-05-23T13:38:32.460Z,26.82
2023-05-23T13:41:01.127Z,26.76
2023-05-23T13:43:29.532Z,26.75
2023-05-23T13:45:57.795Z,26.58
2023-05-23T13:48:26.147Z,26.55
2023-05-23T13:50:55.417Z,26.54
2023-05-23T13:53:23.813Z,26.50
2023-05-23T13:55:53.604Z,26.58
2023-05-23T13:58:22.049Z,26.63
2023-05-23T14:00:50.286Z,26.69
2023-05-23T14:03:19.434Z,26.72
2023-05-23T14:05:47.708Z,26.72
2023-05-23T14:08:16.014Z,26.66
2023-05-23T14:10:45.775Z,26.61
2023-05-23T14:13:15.686Z,26.67
2023-05-23T14:15:44.032Z,26.68
2023-05-23T14:18:12.496Z,26.59
2023-05-23T14:20:41.028Z,26.54
2023-05-23T14:23:09.223Z,26.46
2023-05-23T14:25:38.029Z,26.45
2023-05-23T14:28:06.221Z,26.43
2023-05-23T14:30:36.086Z,26.43
2023-05-23T14:33:04.323Z,26.34
2023-05-23T14:35:34.366Z,26.34
2023-05-23T14:38:02.522Z,26.33
2023-05-23T14:40:30.853Z,26.35
2023-05-23T14:42:59.223Z,26.32
2023-05-23T14:45:27.451Z,26.23
2023-05-23T14:47:57.535Z,26.24
2023-05-23T14:50:26.633Z,26.12
2023-05-23T14:52:58.231Z,26.12
2023-05-23T14:55:26.591Z,26.19
2023-05-23T14:57:55.020Z,26.24
2023-05-23T15:00:23.511Z,26.25
2023-05-23T15:02:52.644Z,26.32
2023-05-23T15:05:22.377Z,26.41
2023-05-23T15:07:51.243Z,26.50
2023-05-23T15:10:19.888Z,26.52
2023-05-23T15:12:48.428Z,26.59
2023-05-23T15:15:23.008Z,26.67
2023-05-23T15:17:52.457Z,26.69
2023-05-23T15:20:22.436Z,26.71
2023-05-23T15:22:51.721Z,26.68
2023-05-23T15:25:29.719Z,26.70
2023-05-23T15:28:02.391Z,26.60
2023-05-23T15:30:30.546Z,26.53
2023-05-23T15:33:01.791Z,26.74
2023-05-23T15:35:32.885Z,26.94
2023-05-23T15:38:01.003Z,27.10
2023-05-23T15:40:29.148Z,27.39
2023-05-23T15:42:57.963Z,27.65
2023-05-23T15:45:26.621Z,27.73
2023-05-23T15:48:04.380Z,27.71
2023-05-23T15:50:34.022Z,27.59
2023-05-23T15:53:02.560Z,27.48
2023-05-23T15:55:30.786Z,27.33
2023-05-23T15:57:59.344Z,27.23
2023-05-23T16:00:28.216Z,27.14
2023-05-23T16:02:57.820Z,26.99
2023-05-23T16:05:26.009Z,27.13
2023-05-23T16:07:56.121Z,27.26
2023-05-23T16:10:24.777Z,27.51
2023-05-23T16:12:53.430Z,27.75
2023-05-23T16:15:21.747Z,27.88
2023-05-23T16:17:50.482Z,27.65
2023-05-23T16:20:18.867Z,27.51
2023-05-23T16:22:47.970Z,27.43
2023-05-23T16:25:17.638Z,27.12
2023-05-23T16:27:46.150Z,26.85
2023-05-23T16:30:15.102Z,26.58
2023-05-23T16:32:43.375Z,26.32
2023-05-23T16:35:12.225Z,26.10
2023-05-23T16:37:41.918Z,25.96
2023-05-23T16:40:10.929Z,25.92
2023-05-23T16:42:40.959Z,25.85
2023-05-23T16:45:09.954Z,25.67
2023-05-23T16:47:38.232Z,25.45
2023-05-23T16:50:08.447Z,25.29
2023-05-23T16:52:39.828Z,25.22
2023-05-23T16:55:09.035Z,25.29
2023-05-23T16:57:37.660Z,25.34
2023-05-23T17:00:09.387Z,25.54
2023-05-23T17:02:38.227Z,25.83
2023-05-23T17:05:07.300Z,26.09
2023-05-23T17:07:36.587Z,26.32
2023-05-23T17:10:04.962Z,26.42
2023-05-23T17:12:33.721Z,26.36
2023-05-23T17:15:01.925Z,26.27
2023-05-23T17:17:31.693Z,26.16
2023-05-23T17:20:00.314Z,26.00
2023-05-23T17:22:28.511Z,25.83
2023-05-23T17:24:56.798Z,25.61
2023-05-23T17:27:25.104Z,25.40
2023-05-23T17:29:53.418Z,25.22
2023-05-23T17:32:22.061Z,25.06
2023-05-23T17:34:52.489Z,24.93
2023-05-23T17:37:21.299Z,24.79
2023-05-23T17:39:51.106Z,24.66
2023-05-23T17:42:19.398Z,24.49
2023-05-23T17:44:48.035Z,24.31
2023-05-23T17:47:18.306Z,24.17
2023-05-23T17:49:46.584Z,24.03
2023-05-23T17:52:34.883Z,23.88
2023-05-23T17:55:03.751Z,23.72
2023-05-23T17:57:32.278Z,23.57
2023-05-23T18:00:00.631Z,23.40
2023-05-23T18:02:28.927Z,23.24
2023-05-23T18:04:57.569Z,23.03
2023-05-23T18:07:36.174Z,22.78
2023-05-23T18:10:05.192Z,22.50
2023-05-23T18:12:33.611Z,22.27
2023-05-23T18:15:01.971Z,22.06
2023-05-23T18:17:30.536Z,21.87
2023-05-23T18:19:58.705Z,21.67
2023-05-23T18:22:38.760Z,21.47
2023-05-23T18:25:09.456Z,21.29
2023-05-23T18:27:37.564Z,21.13
2023-05-23T18:30:06.607Z,20.98
2023-05-23T18:32:34.825Z,20.88
2023-05-23T18:35:03.895Z,20.79
2023-05-23T18:37:32.554Z,20.70
2023-05-23T18:40:00.878Z,20.60
2023-05-23T18:42:32.097Z,20.52
2023-05-23T18:45:00.860Z,20.43
2023-05-23T18:47:29.086Z,20.33
2023-05-23T18:49:58.587Z,20.27
2023-05-23T18:52:26.929Z,20.22
2023-05-23T18:54:55.211Z,20.17
2023-05-23T18:57:24.485Z,20.11
2023-05-23T18:59:54.135Z,20.07
2023-05-23T19:02:22.860Z,20.00
2023-05-23T19:04:52.987Z,19.96
2023-05-23T19:07:21.939Z,19.90
2023-05-23T19:09:50.133Z,19.82
2023-05-23T19:12:18.963Z,19.75
2023-05-23T19:14:47.705Z,19.66
2023-05-23T19:17:17.651Z,19.58
2023-05-23T19:19:45.936Z,19.51
2023-05-23T19:22:14.756Z,19.43
2023-05-23T19:24:43.682Z,19.36
2023-05-23T19:27:11.987Z,19.29
2023-05-23T19:29:40.739Z,19.21
2023-05-23T19:32:09.624Z,19.11
2023-05-23T19:34:39.618Z,19.02
2023-05-23T19:37:09.911Z,18.94
2023-05-23T19:39:45.630Z,18.86
2023-05-23T19:42:13.879Z,18.78
2023-05-23T19:44:42.070Z,18.70
2023-05-23T19:47:10.228Z,18.61
2023-05-23T19:49:39.861Z,18.50
2023-05-23T19:52:07.981Z,18.39
2023-05-23T19:54:36.155Z,18.28
2023-05-23T19:57:05.409Z,18.16
2023-05-23T19:59:34.096Z,18.04
2023-05-23T20:02:02.319Z,17.94
2023-05-23T20:04:30.938Z,17.85
2023-05-23T20:07:00.746Z,17.73
2023-05-23T20:09:28.917Z,17.62
2023-05-23T20:11:57.079Z,17.46
2023-05-23T20:14:25.863Z,17.36
2023-05-23T20:16:54.971Z,17.26
2023-05-23T20:19:23.346Z,17.16
2023-05-23T20:21:51.530Z,17.06
2023-05-23T20:24:21.194Z,16.96
2023-05-23T20:26:49.396Z,16.86
2023-05-23T20:29:17.932Z,16.78
2023-05-23T20:31:46.421Z,16.69
2023-05-23T20:34:14.831Z,16.60
2023-05-23T20:36:44.005Z,16.49
2023-05-23T20:39:13.006Z,16.35
2023-05-23T20:41:43.759Z,16.22
2023-05-23T20:44:14.115Z,16.10
2023-05-23T20:46:42.769Z,15.98
2023-05-23T20:49:11.648Z,15.90
2023-05-23T20:51:40.404Z,15.82
2023-05-23T20:54:09.723Z,15.71
2023-05-23T20:56:37.899Z,15.63
2023-05-23T20:59:08.244Z,15.55
2023-05-23T21:01:37.106Z,15.47
2023-05-23T21:04:05.440Z,15.39
2023-05-23T21:06:34.313Z,15.30
2023-05-23T21:09:02.559Z,15.22
2023-05-23T21:11:30.746Z,15.11
2023-05-23T21:13:58.982Z,15.02
2023-05-23T21:16:31.228Z,14.96
2023-05-23T21:19:00.842Z,14.89
2023-05-23T21:21:29.602Z,14.81
2023-05-23T21:23:57.756Z,14.75
2023-05-23T21:26:26.102Z,14.69
2023-05-23T21:28:54.228Z,14.61
2023-05-23T21:31:33.273Z,14.54
2023-05-23T21:34:23.446Z,14.47
2023-05-23T21:36:54.433Z,14.40
2023-05-23T21:39:22.755Z,14.33
2023-05-23T21:41:51.131Z,14.26
2023-05-23T21:44:20.429Z,14.18
2023-05-23T21:46:48.662Z,14.13
2023-05-23T21:49:18.877Z,14.06
2023-05-23T21:51:47.176Z,14.00
2023-05-23T21:54:15.558Z,13.93
2023-05-23T21:56:44.320Z,13.84
2023-05-23T21:59:12.816Z,13.77
2023-05-23T22:01:41.164Z,13.73
2023-05-23T22:04:09.489Z,13.63
2023-05-23T22:06:39.601Z,13.57
2023-05-23T22:09:11.713Z,13.49
2023-05-23T22:11:40.046Z,13.40
2023-05-23T22:14:08.721Z,13.33
2023-05-23T22:16:40.648Z,13.26
2023-05-23T22:19:12.438Z,13.17
2023-05-23T22:21:42.150Z,13.08
2023-05-23T22:24:10.585Z,13.01
2023-05-23T22:26:39.191Z,12.90
2023-05-23T22:29:07.627Z,12.82
2023-05-23T22:31:35.876Z,12.76
2023-05-23T22:34:04.485Z,12.72
2023-05-23T22:36:34.560Z,12.68
2023-05-23T22:39:05.709Z,12.61
2023-05-23T22:41:34.623Z,12.55
2023-05-23T22:44:02.852Z,12.51
2023-05-23T22:46:31.142Z,12.47
2023-05-23T22:49:00.466Z,12.42
2023-05-23T22:51:29.432Z,12.35
2023-05-23T22:53:57.561Z,12.31
2023-05-23T22:56:27.257Z,12.27
2023-05-23T22:58:55.723Z,12.23
2023-05-23T23:01:24.194Z,12.18
2023-05-23T23:03:52.790Z,12.12
2023-05-23T23:06:21.504Z,12.08
2023-05-23T23:08:50.286Z,12.02
2023-05-23T23:11:18.517Z,11.99
2023-05-23T23:13:48.150Z,11.95
2023-05-23T23:16:19.367Z,11.90
2023-05-23T23:18:49.185Z,11.85
2023-05-23T23:21:17.639Z,11.81
2023-05-23T23:23:45.842Z,11.76
2023-05-23T23:26:14.026Z,11.72
2023-05-23T23:28:42.181Z,11.70
2023-05-23T23:31:12.279Z,11.67
2023-05-23T23:33:40.564Z,11.62
2023-05-23T23:36:09.844Z,11.60
2023-05-23T23:38:39.040Z,11.56
2023-05-23T23:41:07.317Z,11.51
2023-05-23T23:43:35.542Z,11.47
2023-05-23T23:46:04.220Z,11.44
2023-05-23T23:48:33.938Z,11.39
2023-05-23T23:51:02.568Z,11.34
2023-05-23T23:53:31.804Z,11.30
2023-05-23T23:56:00.054Z,11.26
2023-05-23T23:58:28.484Z,11.22
